Time;durP1;ratioP1;P1;durP2;ratioP2;P2;SDS_P1;SDS_P2;PMS_P1;PMS_P2;Temp;Humidity;BMP_temperature;BMP_pressure;BME280_temperature;BME280_humidity;BME280_pressure;Samples;Min_cycle;Max_cycle;Signal;HPM_P1;HPM_P2
2021/10/10 00:01:02;;;;;;;;;;;;;;;16.76;70.97;102531.66;4995169;28;807;-63
2021/10/10 00:03:27;;;;;;;;;;;;;;;16.75;71.02;102535.31;4997135;28;871;-63
2021/10/10 00:05:52;;;;;;;;;;;;;;;16.74;70.88;102525.50;4998991;28;819;-62
2021/10/10 00:08:17;;;;;;;;;;;;;;;16.73;71.09;102531.84;4998756;28;1647;-63
2021/10/10 00:10:42;;;;;;;;;;;;;;;16.72;70.62;102529.25;4998706;28;959;-63
2021/10/10 00:13:08;;;;;;;;;;;;;;;16.72;70.88;102527.44;4998418;28;1166;-62
2021/10/10 00:15:33;;;;;;;;;;;;;;;16.70;70.76;102526.66;4998434;28;840;-62
2021/10/10 00:17:58;;;;;;;;;;;;;;;16.69;70.76;102527.63;5009719;28;1940;-62
2021/10/10 00:20:23;;;;;;;;;;;;;;;16.69;70.91;102527.63;5018035;28;994;-62
2021/10/10 00:22:48;;;;;;;;;;;;;;;16.67;71.02;102524.16;5017989;28;1014;-62
2021/10/10 00:25:13;;;;;;;;;;;;;;;16.67;70.99;102521.47;5017948;28;861;-62
2021/10/10 00:27:38;;;;;;;;;;;;;;;16.66;70.69;102525.97;5018039;28;1635;-61
2021/10/10 00:30:03;;;;;;;;;;;;;;;16.66;71.01;102531.38;5018043;28;926;-61
2021/10/10 00:32:28;;;;;;;;;;;;;;;16.65;70.85;102523.41;5017714;28;843;-62
2021/10/10 00:34:53;;;;;;;;;;;;;;;16.63;71.04;102531.59;5017802;28;805;-63
2021/10/10 00:37:18;;;;;;;;;;;;;;;16.63;70.90;102528.03;5007748;28;1894;-63
2021/10/10 00:39:43;;;;;;;;;;;;;;;16.62;70.81;102523.56;4998071;28;994;-63
2021/10/10 00:42:09;;;;;;;;;;;;;;;16.60;71.40;102520.97;4997985;28;915;-63
2021/10/10 00:44:34;;;;;;;;;;;;;;;16.60;71.16;102528.19;4998260;28;1201;-63
2021/10/10 00:46:59;;;;;;;;;;;;;;;16.59;71.38;102519.25;4998252;28;1733;-63
2021/10/10 00:49:24;;;;;;;;;;;;;;;16.58;70.98;102522.03;4998015;28;931;-63
2021/10/10 00:51:49;;;;;;;;;;;;;;;16.58;71.09;102524.72;4996699;28;1478;-63
2021/10/10 00:54:14;;;;;;;;;;;;;;;16.56;71.10;102514.06;4997846;28;1097;-63
2021/10/10 00:56:39;;;;;;;;;;;;;;;16.56;70.81;102519.44;4997913;28;1894;-63
2021/10/10 00:59:04;;;;;;;;;;;;;;;16.56;71.11;102518.56;4999994;28;1900;-63
2021/10/10 01:01:29;;;;;;;;;;;;;;;16.56;71.26;102521.25;4997919;28;1973;-63
2021/10/10 01:03:54;;;;;;;;;;;;;;;16.53;71.15;102508.84;4997732;28;907;-61
2021/10/10 01:06:19;;;;;;;;;;;;;;;16.53;71.22;102511.53;4997760;28;1811;-64
2021/10/10 01:08:44;;;;;;;;;;;;;;;16.52;70.78;102512.50;4997375;28;970;-64
2021/10/10 01:11:09;;;;;;;;;;;;;;;16.53;70.92;102510.69;4997382;28;847;-63
2021/10/10 01:13:35;;;;;;;;;;;;;;;16.51;71.09;102515.28;4997069;28;1201;-63
2021/10/10 01:16:00;;;;;;;;;;;;;;;16.49;70.93;102496.56;4996716;28;1553;-63
2021/10/10 01:18:25;;;;;;;;;;;;;;;16.49;70.98;102506.44;4997713;28;1973;-63
2021/10/10 01:20:50;;;;;;;;;;;;;;;16.49;70.82;102498.38;5001004;28;1884;-63
2021/10/10 01:23:15;;;;;;;;;;;;;;;16.47;71.32;102503.03;5017244;28;845;-64
2021/10/10 01:25:40;;;;;;;;;;;;;;;16.47;71.11;102503.88;5016871;28;1518;-64
2021/10/10 01:28:05;;;;;;;;;;;;;;;16.46;70.78;102504.84;5016772;28;811;-61
2021/10/10 01:30:30;;;;;;;;;;;;;;;16.46;70.80;102501.28;5016508;28;1902;-62
2021/10/10 01:32:55;;;;;;;;;;;;;;;16.44;71.60;102496.00;5005616;28;2037;-62
2021/10/10 01:35:20;;;;;;;;;;;;;;;16.41;70.83;102490.81;4997380;28;1790;-62
2021/10/10 01:37:45;;;;;;;;;;;;;;;16.43;70.83;102490.72;4996836;28;1898;-62
2021/10/10 01:40:11;;;;;;;;;;;;;;;16.41;71.03;102487.25;4997010;28;853;-62
2021/10/10 01:42:36;;;;;;;;;;;;;;;16.41;71.28;102488.13;4997323;28;1923;-62
2021/10/10 01:45:01;;;;;;;;;;;;;;;16.41;70.89;102484.56;4997486;28;1014;-62
2021/10/10 01:47:26;;;;;;;;;;;;;;;16.39;71.23;102483.78;4996972;28;879;-62
2021/10/10 01:49:51;;;;;;;;;;;;;;;16.38;71.37;102482.94;4996940;28;994;-65
2021/10/10 01:52:16;;;;;;;;;;;;;;;16.38;71.12;102479.38;4997105;28;1983;-64
2021/10/10 01:54:41;;;;;;;;;;;;;;;16.37;71.40;102481.19;4996873;28;962;-64
2021/10/10 01:57:06;;;;;;;;;;;;;;;16.36;70.78;102484.84;4996878;28;1951;-64
2021/10/10 01:59:31;;;;;;;;;;;;;;;16.37;70.84;102486.56;4996515;28;1053;-63
2021/10/10 02:01:56;;;;;;;;;;;;;;;16.36;70.94;102484.84;4996895;28;895;-62
2021/10/10 02:04:21;;;;;;;;;;;;;;;16.35;71.25;102484.94;4996617;28;993;-63
2021/10/10 02:06:46;;;;;;;;;;;;;;;16.33;70.84;102479.66;4998145;28;1922;-63
2021/10/10 02:09:11;;;;;;;;;;;;;;;16.33;71.07;102477.81;5015808;28;1837;-63
2021/10/10 02:11:36;;;;;;;;;;;;;;;16.32;71.06;102478.78;5016292;28;1161;-63
2021/10/10 02:14:02;;;;;;;;;;;;;;;16.32;70.97;102476.09;5015949;28;977;-64
2021/10/10 02:16:27;;;;;;;;;;;;;;;16.30;70.98;102475.31;5015791;28;1010;-64
2021/10/10 02:18:53;;;;;;;;;;;;;;;16.30;71.28;102482.56;5015866;28;1956;-65
2021/10/10 02:21:18;;;;;;;;;;;;;;;16.29;70.92;102475.44;5016171;28;842;-65
2021/10/10 02:23:43;;;;;;;;;;;;;;;16.27;71.08;102478.22;5015858;28;828;-62
2021/10/10 02:26:08;;;;;;;;;;;;;;;16.27;71.37;102475.53;5015620;28;1057;-62
2021/10/10 02:28:33;;;;;;;;;;;;;;;16.25;71.08;102472.09;5015921;28;1665;-63
2021/10/10 02:30:59;;;;;;;;;;;;;;;16.26;71.00;102468.44;5013936;28;1552;-63
2021/10/10 02:33:24;;;;;;;;;;;;;;;16.26;70.93;102472.94;4996099;28;839;-63
2021/10/10 02:35:49;;;;;;;;;;;;;;;16.25;71.29;102472.09;4996216;28;823;-63
2021/10/10 02:38:14;;;;;;;;;;;;;;;16.23;71.12;102471.31;4996315;28;1894;-63
2021/10/10 02:40:39;;;;;;;;;;;;;;;16.23;71.17;102470.44;4995980;28;1953;-62
2021/10/10 02:43:04;;;;;;;;;;;;;;;16.23;71.07;102473.13;4995653;28;903;-62
2021/10/10 02:45:29;;;;;;;;;;;;;;;16.21;71.11;102478.59;4995660;28;827;-62
2021/10/10 02:47:54;;;;;;;;;;;;;;;16.21;70.86;102467.84;4995774;28;999;-62
2021/10/10 02:50:19;;;;;;;;;;;;;;;16.20;70.88;102467.94;4995798;28;1057;-63
2021/10/10 02:52:44;;;;;;;;;;;;;;;16.20;70.69;102465.25;4995536;28;1919;-64
2021/10/10 02:55:09;;;;;;;;;;;;;;;16.19;71.00;102464.38;4995605;28;1050;-63
2021/10/10 02:57:34;;;;;;;;;;;;;;;16.17;71.04;102463.63;4995467;28;1949;-63
2021/10/10 02:59:59;;;;;;;;;;;;;;;16.17;71.02;102463.63;5004308;28;1982;-64
2021/10/10 03:02:24;;;;;;;;;;;;;;;16.16;70.93;102459.19;5015361;28;1077;-64
2021/10/10 03:04:50;;;;;;;;;;;;;;;16.16;70.92;102466.41;5015086;28;1013;-62
2021/10/10 03:07:15;;;;;;;;;;;;;;;16.15;70.63;102459.28;5015259;28;800;-62
2021/10/10 03:09:40;;;;;;;;;;;;;;;16.13;71.03;102467.44;5015017;28;886;-61
2021/10/10 03:12:05;;;;;;;;;;;;;;;16.12;70.63;102457.66;5000607;28;1866;-61
2021/10/10 03:14:30;;;;;;;;;;;;;;;16.13;70.83;102458.50;5013560;28;2012;-62
2021/10/10 03:16:55;;;;;;;;;;;;;;;16.10;70.70;102453.34;5015432;28;1964;-62
2021/10/10 03:19:20;;;;;;;;;;;;;;;16.10;71.03;102451.53;5014888;28;994;-62
2021/10/10 03:21:45;;;;;;;;;;;;;;;16.09;71.03;102449.81;5014888;28;938;-61
2021/10/10 03:24:10;;;;;;;;;;;;;;;16.09;70.61;102460.56;5015258;28;844;-65
2021/10/10 03:26:35;;;;;;;;;;;;;;;16.08;70.96;102450.75;5014845;28;841;-65
2021/10/10 03:29:00;;;;;;;;;;;;;;;16.07;70.93;102443.66;5015001;28;1057;-65
2021/10/10 03:31:25;;;;;;;;;;;;;;;16.06;71.08;102441.91;5003739;28;1897;-64
2021/10/10 03:33:50;;;;;;;;;;;;;;;16.06;70.99;102441.06;4995162;28;836;-65
2021/10/10 03:36:15;;;;;;;;;;;;;;;16.05;70.80;102439.31;4995371;28;1799;-64
2021/10/10 03:38:41;;;;;;;;;;;;;;;16.05;70.79;102432.13;4997962;28;1902;-64
2021/10/10 03:41:06;;;;;;;;;;;;;;;16.04;70.99;102438.47;4999197;28;1058;-65
2021/10/10 03:43:31;;;;;;;;;;;;;;;16.03;70.61;102439.41;4998907;28;870;-65
2021/10/10 03:45:56;;;;;;;;;;;;;;;16.03;70.70;102436.72;4998900;28;1633;-65
2021/10/10 03:48:23;;;;;;;;;;;;;;;16.03;70.45;102438.56;4999081;28;823;-64
2021/10/10 03:50:48;;;;;;;;;;;;;;;16.01;71.06;102446.72;5007701;28;1716;-64
2021/10/10 03:53:13;;;;;;;;;;;;;;;16.00;70.79;102434.22;5018494;28;1002;-64
2021/10/10 03:55:39;;;;;;;;;;;;;;;16.00;70.74;102442.28;5018574;28;1523;-61
2021/10/10 03:58:05;;;;;;;;;;;;;;;16.00;71.09;102438.72;5018406;28;1902;-61
2021/10/10 04:00:30;;;;;;;;;;;;;;;15.98;70.55;102438.81;5018458;28;859;-61
2021/10/10 04:02:55;;;;;;;;;;;;;;;15.97;70.47;102437.09;5018509;28;891;-62
2021/10/10 04:07:58;;;;;;;;;;;;;;;15.96;70.74;102430.84;5018245;28;823;-62
2021/10/10 04:10:23;;;;;;;;;;;;;;;15.96;70.68;102441.59;5011081;28;1899;-62
2021/10/10 04:12:48;;;;;;;;;;;;;;;15.95;70.88;102436.31;4999143;28;1354;-62
2021/10/10 04:15:13;;;;;;;;;;;;;;;15.95;70.76;102439.88;4998808;28;1163;-61
2021/10/10 04:17:38;;;;;;;;;;;;;;;15.94;70.37;102440.00;4998699;28;1985;-63
2021/10/10 04:20:03;;;;;;;;;;;;;;;15.93;71.01;102435.59;4998466;28;875;-63
2021/10/10 04:22:28;;;;;;;;;;;;;;;15.93;70.50;102443.66;4998294;28;1387;-64
2021/10/10 04:24:53;;;;;;;;;;;;;;;15.93;70.96;102436.44;4998411;28;1230;-65
2021/10/10 04:27:18;;;;;;;;;;;;;;;15.92;71.15;102439.22;4998352;28;1196;-65
2021/10/10 04:29:44;;;;;;;;;;;;;;;15.91;71.05;102448.25;4998234;28;835;-65
2021/10/10 04:32:09;;;;;;;;;;;;;;;15.90;70.63;102442.00;5001621;28;1896;-65
2021/10/10 04:34:34;;;;;;;;;;;;;;;15.88;70.97;102451.13;5010554;28;1908;-64
2021/10/10 04:36:59;;;;;;;;;;;;;;;15.90;70.82;102451.91;4998236;28;1973;-64
2021/10/10 04:39:24;;;;;;;;;;;;;;;15.89;70.61;102455.53;4998531;28;812;-64
2021/10/10 04:41:49;;;;;;;;;;;;;;;15.88;71.02;102451.13;4998161;28;828;-64
2021/10/10 04:44:14;;;;;;;;;;;;;;;15.86;70.85;102448.53;4997836;28;959;-65
2021/10/10 04:46:39;;;;;;;;;;;;;;;15.85;70.85;102446.78;4997857;28;1007;-65
2021/10/10 04:49:04;;;;;;;;;;;;;;;15.86;70.63;102453.03;4996881;28;1645;-64
2021/10/10 04:51:29;;;;;;;;;;;;;;;15.85;70.87;102445.94;4997906;28;939;-64
2021/10/10 04:53:55;;;;;;;;;;;;;;;15.85;70.43;102443.25;5016879;28;1892;-65
2021/10/10 04:56:20;;;;;;;;;;;;;;;15.83;70.60;102440.66;5017247;28;927;-65
2021/10/10 04:58:45;;;;;;;;;;;;;;;15.83;70.69;102437.09;5017270;28;1898;-64
2021/10/10 05:01:10;;;;;;;;;;;;;;;15.82;70.86;102430.00;5015984;28;2012;-64
2021/10/10 05:03:35;;;;;;;;;;;;;;;15.80;70.84;102435.44;5002896;28;1993;-64
2021/10/10 05:06:00;;;;;;;;;;;;;;;15.81;70.61;102433.63;4997617;28;821;-64
2021/10/10 05:08:25;;;;;;;;;;;;;;;15.80;70.56;102439.97;4997732;28;773;-64
2021/10/10 05:10:50;;;;;;;;;;;;;;;15.79;70.79;102440.91;4997800;28;947;-64
2021/10/10 05:13:15;;;;;;;;;;;;;;;15.79;70.41;102440.91;5013593;28;1813;-63
2021/10/10 05:15:40;;;;;;;;;;;;;;;15.78;70.89;102440.06;5017212;28;789;-62
2021/10/10 05:18:05;;;;;;;;;;;;;;;15.77;70.88;102438.31;5016954;28;1977;-62
2021/10/10 05:20:30;;;;;;;;;;;;;;;15.76;70.52;102435.75;5016948;28;998;-62
2021/10/10 05:22:56;;;;;;;;;;;;;;;15.75;70.55;102434.03;5016867;28;914;-63
2021/10/10 05:25:21;;;;;;;;;;;;;;;15.74;70.76;102426.91;5016819;28;784;-63
2021/10/10 05:27:46;;;;;;;;;;;;;;;15.74;70.32;102427.78;5017168;28;803;-63
2021/10/10 05:30:11;;;;;;;;;;;;;;;15.73;70.80;102428.75;5017049;28;843;-63
2021/10/10 05:32:36;;;;;;;;;;;;;;;15.73;70.62;102438.63;5007800;28;1907;-63
2021/10/10 05:35:01;;;;;;;;;;;;;;;15.73;70.19;102435.94;5004847;28;2236;-62
2021/10/10 05:37:26;;;;;;;;;;;;;;;15.73;70.47;102444.88;5009139;28;1949;-63
2021/10/10 05:39:51;;;;;;;;;;;;;;;15.73;70.51;102444.00;5030887;28;2250;-63
2021/10/10 05:42:16;;;;;;;;;;;;;;;15.72;70.87;102440.44;5036446;28;2024;-63
2021/10/10 05:44:41;;;;;;;;;;;;;;;15.71;70.49;102427.09;5036304;28;1998;-63
2021/10/10 05:47:07;;;;;;;;;;;;;;;15.70;70.59;102403.88;5036400;28;2004;-64
2021/10/10 05:49:32;;;;;;;;;;;;;;;15.70;71.01;102403.88;5036328;28;2177;-64
2021/10/10 05:51:58;;;;;;;;;;;;;;;15.69;70.77;102402.13;5030465;28;1984;-62
2021/10/10 05:54:24;;;;;;;;;;;;;;;15.69;70.56;102404.84;5006048;28;2073;-62
2021/10/10 05:56:49;;;;;;;;;;;;;;;15.69;70.99;102402.13;5011916;28;1959;-62
2021/10/10 05:59:16;;;;;;;;;;;;;;;15.67;70.43;102393.31;5016170;28;2110;-62
2021/10/10 06:01:41;;;;;;;;;;;;;;;15.67;71.11;102393.31;5015262;28;2090;-62
2021/10/10 06:04:06;;;;;;;;;;;;;;;15.68;70.54;102395.03;5011520;28;1994;-62
2021/10/10 06:06:31;;;;;;;;;;;;;;;15.66;70.77;102407.69;5015910;28;2111;-61
2021/10/10 06:08:56;;;;;;;;;;;;;;;15.66;70.96;102400.50;5013439;28;2054;-61
2021/10/10 06:11:21;;;;;;;;;;;;;;;15.66;71.01;102405.00;5018012;28;1959;-62
2021/10/10 06:13:46;;;;;;;;;;;;;;;15.64;70.83;102410.47;5018668;28;1668;-62
2021/10/10 06:16:11;;;;;;;;;;;;;;;15.63;70.77;102406.94;5017488;28;1883;-62
2021/10/10 06:18:36;;;;;;;;;;;;;;;15.63;70.71;102401.56;5018630;28;2026;-62
2021/10/10 06:21:01;;;;;;;;;;;;;;;15.63;70.73;102396.19;5017401;28;1978;-63
2021/10/10 06:23:26;;;;;;;;;;;;;;;15.62;70.69;102397.13;5014925;28;1615;-63
2021/10/10 06:25:51;;;;;;;;;;;;;;;15.61;70.60;102408.84;5014957;28;1252;-64
2021/10/10 06:28:17;;;;;;;;;;;;;;;15.61;70.46;102416.91;5014097;28;1647;-63
2021/10/10 06:30:42;;;;;;;;;;;;;;;15.61;70.67;102427.66;5004773;28;1899;-64
2021/10/10 06:33:07;;;;;;;;;;;;;;;15.61;70.43;102419.59;5013442;28;1775;-64
2021/10/10 06:35:32;;;;;;;;;;;;;;;15.60;70.78;102433.97;5016451;28;1950;-64
2021/10/10 06:37:57;;;;;;;;;;;;;;;15.59;70.47;102429.56;5016161;28;1952;-64
2021/10/10 06:40:23;;;;;;;;;;;;;;;15.58;70.87;102422.50;5015553;28;1676;-64
2021/10/10 06:42:48;;;;;;;;;;;;;;;15.59;70.70;102426.00;5018045;28;1709;-64
2021/10/10 06:45:13;;;;;;;;;;;;;;;15.59;70.35;102429.56;5016967;28;1646;-64
2021/10/10 06:47:40;;;;;;;;;;;;;;;15.59;71.12;102418.81;5012381;28;2259;-64
2021/10/10 06:50:05;;;;;;;;;;;;;;;15.59;70.67;102424.19;5006131;28;1835;-63
2021/10/10 06:52:30;;;;;;;;;;;;;;;15.59;70.63;102421.50;5015056;28;2000;-63
2021/10/10 06:54:55;;;;;;;;;;;;;;;15.57;70.48;102426.13;5015799;28;1550;-62
2021/10/10 06:57:20;;;;;;;;;;;;;;;15.57;70.95;102418.06;5014361;28;1973;-65
2021/10/10 06:59:45;;;;;;;;;;;;;;;15.57;70.94;102423.44;5009752;28;1852;-65
2021/10/10 07:02:11;;;;;;;;;;;;;;;15.58;70.78;102427.88;5022206;28;1794;-64
2021/10/10 07:04:36;;;;;;;;;;;;;;;15.58;70.42;102427.00;5025417;28;1814;-63
2021/10/10 07:07:01;;;;;;;;;;;;;;;15.57;70.73;102410.00;5014586;28;2004;-62
2021/10/10 07:09:26;;;;;;;;;;;;;;;15.58;70.71;102411.75;5012202;28;1548;-62
2021/10/10 07:11:52;;;;;;;;;;;;;;;15.57;70.45;102419.91;5034229;28;1609;-63
2021/10/10 07:14:17;;;;;;;;;;;;;;;15.56;70.44;102427.09;5034841;28;1584;-63
2021/10/10 07:16:43;;;;;;;;;;;;;;;15.54;70.80;102428.97;5027033;28;1632;-63
2021/10/10 07:19:08;;;;;;;;;;;;;;;15.54;70.71;102431.66;5014694;28;2238;-63
2021/10/10 07:21:54;;;;;;;;;;;;;;;15.55;70.84;102421.78;5028837;28;1628;-62
2021/10/10 07:27:03;;;;;;;;;;;;;;;15.55;70.72;102436.09;5025129;28;1657;-62
2021/10/10 07:29:28;;;;;;;;;;;;;;;15.55;70.46;102444.16;5034190;28;1558;-62
2021/10/10 07:31:53;;;;;;;;;;;;;;;15.54;70.41;102444.22;5018740;28;1543;-62
2021/10/10 07:34:18;;;;;;;;;;;;;;;15.56;70.65;102450.41;5017533;28;1877;-62
2021/10/10 07:36:44;;;;;;;;;;;;;;;15.53;70.38;102450.56;5017305;28;1845;-62
2021/10/10 07:39:09;;;;;;;;;;;;;;;15.53;70.47;102454.09;5024865;28;1894;-62
2021/10/10 07:41:36;;;;;;;;;;;;;;;15.53;70.64;102462.16;5018626;28;1796;-63
2021/10/10 07:44:01;;;;;;;;;;;;;;;15.54;70.80;102458.53;5024825;28;1946;-63
2021/10/10 07:46:34;;;;;;;;;;;;;;;15.53;70.53;102454.09;5013747;28;1583;-62
2021/10/10 07:48:59;;;;;;;;;;;;;;;15.52;70.56;102460.44;5014685;28;1557;-63
2021/10/10 07:51:27;;;;;;;;;;;;;;;15.53;70.49;102456.78;5014141;28;1627;-62
2021/10/10 07:53:52;;;;;;;;;;;;;;;15.53;70.59;102466.69;5014813;28;1631;-62
2021/10/10 07:56:19;;;;;;;;;;;;;;;15.53;70.01;102462.16;5015328;28;1985;-63
2021/10/10 07:58:44;;;;;;;;;;;;;;;15.53;69.90;102459.47;5013908;28;1902;-63
2021/10/10 08:01:09;;;;;;;;;;;;;;;15.53;69.97;102467.53;5015576;28;1739;-63
2021/10/10 08:03:34;;;;;;;;;;;;;;;15.52;69.99;102471.19;5022133;28;1526;-63
2021/10/10 08:05:59;;;;;;;;;;;;;;;15.53;69.95;102464.84;5014463;28;1599;-63
2021/10/10 08:08:24;;;;;;;;;;;;;;;15.53;70.06;102467.53;5030029;28;2009;-63
2021/10/10 08:10:49;;;;;;;;;;;;;;;15.53;70.19;102466.69;5029430;28;1727;-63
2021/10/10 08:13:15;;;;;;;;;;;;;;;15.52;70.42;102468.50;5023875;28;1828;-63
2021/10/10 08:15:40;;;;;;;;;;;;;;;15.54;70.28;102466.59;5023527;28;1614;-63
2021/10/10 08:18:05;;;;;;;;;;;;;;;15.53;70.19;102467.53;5026490;28;1906;-63
2021/10/10 08:20:30;;;;;;;;;;;;;;;15.53;70.02;102472.91;5010611;28;1721;-63
2021/10/10 08:22:57;;;;;;;;;;;;;;;15.53;70.40;102472.06;5011160;28;1583;-63
2021/10/10 08:25:22;;;;;;;;;;;;;;;15.53;70.08;102472.06;5033170;28;2041;-63
2021/10/10 08:27:48;;;;;;;;;;;;;;;15.53;70.32;102466.69;5024011;28;1518;-63
2021/10/10 08:30:13;;;;;;;;;;;;;;;15.55;69.94;102468.34;5018004;28;1524;-63
2021/10/10 08:32:38;;;;;;;;;;;;;;;15.54;69.71;102463.91;5015976;28;2341;-63
2021/10/10 08:35:03;;;;;;;;;;;;;;;15.55;70.45;102468.34;5017360;28;1587;-63
2021/10/10 08:37:28;;;;;;;;;;;;;;;15.57;70.20;102474.50;5017416;28;1906;-63
2021/10/10 08:39:54;;;;;;;;;;;;;;;15.57;70.17;102458.38;5017504;28;1111;-63
2021/10/10 08:42:19;;;;;;;;;;;;;;;15.56;70.27;102467.41;5017605;28;965;-63
2021/10/10 08:44:47;;;;;;;;;;;;;;;15.55;70.02;102471.03;5017378;28;852;-63
2021/10/10 08:47:16;;;;;;;;;;;;;;;15.56;69.92;102467.41;5017944;28;843;-63
2021/10/10 08:49:42;;;;;;;;;;;;;;;15.58;69.79;102465.50;5017973;28;784;-63
2021/10/10 08:52:07;;;;;;;;;;;;;;;15.57;70.22;102463.75;5017234;28;1010;-63
2021/10/10 08:54:32;;;;;;;;;;;;;;;15.58;70.04;102464.63;5017304;28;863;-63
2021/10/10 08:56:57;;;;;;;;;;;;;;;15.57;70.12;102463.75;5017131;28;1898;-63
2021/10/10 08:59:23;;;;;;;;;;;;;;;15.57;70.15;102463.75;5017073;28;1799;-63
2021/10/10 09:01:48;;;;;;;;;;;;;;;15.57;69.94;102461.06;5017620;28;868;-63
2021/10/10 09:04:14;;;;;;;;;;;;;;;15.56;70.25;102456.66;5017126;28;835;-63
2021/10/10 09:06:41;;;;;;;;;;;;;;;15.57;69.92;102463.75;5017837;28;811;-62
2021/10/10 09:09:06;;;;;;;;;;;;;;;15.58;69.81;102459.25;5017132;28;1581;-62
2021/10/10 09:11:31;;;;;;;;;;;;;;;15.58;70.01;102459.25;5016997;28;1123;-63
2021/10/10 09:13:57;;;;;;;;;;;;;;;15.59;70.23;102456.44;5017082;28;993;-63
2021/10/10 09:16:22;;;;;;;;;;;;;;;15.58;70.21;102457.44;5017184;28;1516;-63
2021/10/10 09:18:47;;;;;;;;;;;;;;;15.59;69.92;102466.31;5016789;28;1918;-63
2021/10/10 09:21:12;;;;;;;;;;;;;;;15.60;69.82;102457.31;5010742;28;1688;-63
2021/10/10 09:23:39;;;;;;;;;;;;;;;15.66;70.05;102454.25;5018798;28;1490;-64
2021/10/10 09:26:04;;;;;;;;;;;;;;;15.76;70.88;102454.56;5016820;28;1712;-63
2021/10/10 09:28:29;;;;;;;;;;;;;;;15.88;71.36;102445.75;5016967;28;1766;-62
2021/10/10 09:30:55;;;;;;;;;;;;;;;15.91;71.98;102451.81;5017002;28;788;-63
2021/10/10 09:33:22;;;;;;;;;;;;;;;15.98;71.60;102457.66;5017199;28;826;-63
2021/10/10 09:35:47;;;;;;;;;;;;;;;16.07;72.49;102459.78;5015752;28;1404;-66
2021/10/10 09:38:16;;;;;;;;;;;;;;;15.93;72.98;102467.84;5016646;28;1991;-65
2021/10/10 09:41:03;;;;;;;;;;;;;;;15.84;74.66;102471.94;5016950;28;808;-65
2021/10/10 09:43:27;;;;;;;;;;;;;;;15.81;75.77;102479.34;5015963;28;1666;-65
2021/10/10 09:45:57;;;;;;;;;;;;;;;15.79;76.16;102478.56;5016444;28;1686;-64
2021/10/10 09:48:22;;;;;;;;;;;;;;;15.81;75.55;102476.66;5016287;28;1530;-65
2021/10/10 09:50:47;;;;;;;;;;;;;;;15.80;75.84;102464.16;5016631;28;926;-64
2021/10/10 09:53:13;;;;;;;;;;;;;;;15.79;77.15;102452.53;5016272;28;1264;-65
2021/10/10 09:55:38;;;;;;;;;;;;;;;15.80;77.66;102459.66;5016497;28;874;-65
2021/10/10 09:58:03;;;;;;;;;;;;;;;15.81;77.96;102465.88;5016017;28;1957;-65
2021/10/10 10:00:28;;;;;;;;;;;;;;;15.83;78.43;102470.22;5016139;28;863;-65
2021/10/10 10:02:54;;;;;;;;;;;;;;;15.84;78.37;102476.47;5016455;28;1836;-65
2021/10/10 10:05:19;;;;;;;;;;;;;;;15.82;78.73;102471.19;5016555;28;1064;-65
2021/10/10 10:07:44;;;;;;;;;;;;;;;15.85;78.59;102478.19;5016008;28;1674;-65
2021/10/10 10:10:09;;;;;;;;;;;;;;;15.87;78.58;102476.28;5016123;28;1014;-65
2021/10/10 10:12:34;;;;;;;;;;;;;;;15.85;78.60;102480.88;5014832;28;1331;-65
2021/10/10 10:15:00;;;;;;;;;;;;;;;15.86;77.68;102479.94;5016416;28;930;-65
2021/10/10 10:17:26;;;;;;;;;;;;;;;15.84;78.06;102479.16;5015706;28;1918;-65
2021/10/10 10:19:51;;;;;;;;;;;;;;;15.85;77.85;102479.06;5016281;28;812;-65
2021/10/10 10:22:16;;;;;;;;;;;;;;;15.85;78.44;102488.94;5016041;28;1005;-65
2021/10/10 10:24:42;;;;;;;;;;;;;;;15.83;79.29;102482.78;5016160;28;941;-65
2021/10/10 10:27:07;;;;;;;;;;;;;;;15.83;78.47;102474.72;5015858;28;1509;-65
2021/10/10 10:29:32;;;;;;;;;;;;;;;15.85;79.05;102472.81;5015967;28;1879;-65
2021/10/10 10:31:57;;;;;;;;;;;;;;;15.82;78.93;102479.25;5014514;28;811;-65
2021/10/10 10:34:22;;;;;;;;;;;;;;;15.85;79.44;102475.50;5015802;28;998;-64
2021/10/10 10:36:47;;;;;;;;;;;;;;;15.82;78.62;102468.50;5015937;28;871;-65
2021/10/10 10:39:12;;;;;;;;;;;;;;;15.85;78.22;102472.81;5015627;28;1961;-65
2021/10/10 10:41:37;;;;;;;;;;;;;;;15.85;79.39;102472.81;5015880;28;911;-66
2021/10/10 10:44:02;;;;;;;;;;;;;;;15.86;78.91;102470.03;5015766;28;879;-65
2021/10/10 10:46:27;;;;;;;;;;;;;;;15.86;79.23;102470.03;5015544;28;1608;-65
2021/10/10 10:48:52;;;;;;;;;;;;;;;15.85;79.93;102472.81;5015362;28;1819;-65
2021/10/10 10:51:23;;;;;;;;;;;;;;;15.86;79.44;102479.94;5015704;28;1009;-65
2021/10/10 10:53:49;;;;;;;;;;;;;;;15.86;79.86;102474.53;5014952;28;1531;-64
2021/10/10 10:56:14;;;;;;;;;;;;;;;15.88;78.84;102478.00;5021765;28;1562;-65
2021/10/10 10:58:39;;;;;;;;;;;;;;;15.89;79.20;102475.22;5015329;28;1898;-65
2021/10/10 11:01:04;;;;;;;;;;;;;;;15.92;79.40;102471.50;5013460;28;1501;-65
2021/10/10 11:03:30;;;;;;;;;;;;;;;15.90;80.01;102470.72;5018464;28;1568;-65
2021/10/10 11:05:57;;;;;;;;;;;;;;;15.88;80.18;102472.63;5014996;28;1638;-65
2021/10/10 11:08:22;;;;;;;;;;;;;;;15.91;80.11;102472.44;5020902;28;1653;-65
2021/10/10 11:10:47;;;;;;;;;;;;;;;15.91;80.26;102464.38;5020107;28;1655;-64
2021/10/10 11:13:12;;;;;;;;;;;;;;;15.92;79.91;102469.66;5021197;28;1549;-65
2021/10/10 11:15:37;;;;;;;;;;;;;;;15.92;80.14;102471.50;5015907;28;1637;-65
2021/10/10 11:18:02;;;;;;;;;;;;;;;15.93;80.30;102465.16;5018383;28;1918;-65
2021/10/10 11:20:27;;;;;;;;;;;;;;;15.96;79.89;102470.31;5014961;28;1622;-65
2021/10/10 11:22:52;;;;;;;;;;;;;;;15.95;80.02;102468.59;5013656;28;1538;-64
2021/10/10 11:25:17;;;;;;;;;;;;;;;15.94;80.33;102467.72;5015358;28;1644;-66
2021/10/10 11:27:42;;;;;;;;;;;;;;;15.95;79.83;102460.53;5014889;28;1546;-66
2021/10/10 11:30:08;;;;;;;;;;;;;;;15.92;80.63;102466.13;5015267;28;1761;-65
2021/10/10 11:32:33;;;;;;;;;;;;;;;15.94;80.16;102462.34;5015391;28;835;-66
2021/10/10 11:34:58;;;;;;;;;;;;;;;15.95;80.18;102458.69;5015422;28;910;-66
2021/10/10 11:37:23;;;;;;;;;;;;;;;15.94;80.20;102461.50;5014916;28;1894;-66
2021/10/10 11:39:48;;;;;;;;;;;;;;;15.95;80.77;102456.00;5015169;28;992;-65
2021/10/10 11:42:13;;;;;;;;;;;;;;;15.97;80.45;102454.09;5014900;28;852;-65
2021/10/10 11:44:39;;;;;;;;;;;;;;;15.96;80.26;102451.50;5015179;28;1045;-66
2021/10/10 11:47:05;;;;;;;;;;;;;;;15.99;80.29;102445.94;5014927;28;1741;-66
2021/10/10 11:49:34;;;;;;;;;;;;;;;16.01;80.67;102441.34;5015734;28;799;-66
2021/10/10 11:51:59;;;;;;;;;;;;;;;16.05;80.36;102442.88;5015446;28;834;-66
2021/10/10 11:54:24;;;;;;;;;;;;;;;16.04;80.46;102434.91;5014596;28;1699;-66
2021/10/10 11:56:49;;;;;;;;;;;;;;;16.10;80.36;102426.47;5014983;28;1273;-66
2021/10/10 11:59:14;;;;;;;;;;;;;;;16.08;80.60;102426.56;5016737;28;1883;-66
2021/10/10 12:01:39;;;;;;;;;;;;;;;16.16;80.20;102434.97;5018593;28;1005;-65
2021/10/10 12:04:04;;;;;;;;;;;;;;;16.18;80.28;102435.75;5018233;28;1713;-63
2021/10/10 12:06:29;;;;;;;;;;;;;;;16.25;79.48;102434.41;5017554;28;1639;-65
2021/10/10 12:08:54;;;;;;;;;;;;;;;16.27;79.60;102428.94;5017579;28;1632;-65
2021/10/10 12:11:19;;;;;;;;;;;;;;;16.30;79.61;102437.66;5017204;28;1443;-65
2021/10/10 12:13:44;;;;;;;;;;;;;;;16.32;80.12;102435.75;5017674;28;1739;-65
2021/10/10 12:16:09;;;;;;;;;;;;;;;16.34;80.00;102438.34;5018167;28;1612;-65
2021/10/10 12:18:35;;;;;;;;;;;;;;;16.37;79.82;102445.34;5016817;28;1977;-66
2021/10/10 12:21:00;;;;;;;;;;;;;;;16.36;80.06;102436.41;5018069;28;827;-66
2021/10/10 12:23:25;;;;;;;;;;;;;;;16.38;80.39;102433.63;5017866;28;1477;-66
2021/10/10 12:25:50;;;;;;;;;;;;;;;16.42;80.21;102435.16;5016857;28;1326;-65
2021/10/10 12:28:15;;;;;;;;;;;;;;;16.42;80.05;102424.41;5017808;28;1077;-66
2021/10/10 12:30:40;;;;;;;;;;;;;;;16.42;80.24;102424.41;5017958;28;1693;-66
2021/10/10 12:33:05;;;;;;;;;;;;;;;16.40;80.17;102429.88;5018077;28;898;-65
2021/10/10 12:35:30;;;;;;;;;;;;;;;16.40;80.23;102429.00;5016720;28;1294;-65
2021/10/10 12:37:55;;;;;;;;;;;;;;;16.41;80.03;102430.75;5017625;28;1902;-66
2021/10/10 12:40:20;;;;;;;;;;;;;;;16.39;80.50;102429.97;5017613;28;842;-66
2021/10/10 12:42:46;;;;;;;;;;;;;;;16.37;80.20;102427.38;5017538;28;1825;-65
2021/10/10 12:45:19;;;;;;;;;;;;;;;16.40;80.53;102418.25;5018002;28;780;-66